sensor_id;sensor_type;location;lat;lon;timestamp;temperature;humidity
52787;DHT22;38661;53.152;5.846;2022-09-21T00:01:26;10.20;83.50
52787;DHT22;38661;53.152;5.846;2022-09-21T00:03:57;10.20;83.60
52787;DHT22;38661;53.152;5.846;2022-09-21T00:06:25;10.20;83.60
52787;DHT22;38661;53.152;5.846;2022-09-21T00:08:51;10.10;83.60
52787;DHT22;38661;53.152;5.846;2022-09-21T00:11:20;10.10;83.80
52787;DHT22;38661;53.152;5.846;2022-09-21T00:13:51;10.10;83.90
52787;DHT22;38661;53.152;5.846;2022-09-21T00:16:18;10.10;84.00
52787;DHT22;38661;53.152;5.846;2022-09-21T00:18:44;10.10;84.20
52787;DHT22;38661;53.152;5.846;2022-09-21T00:21:13;10.10;84.50
52787;DHT22;38661;53.152;5.846;2022-09-21T00:23:40;10.10;84.50
52787;DHT22;38661;53.152;5.846;2022-09-21T00:26:12;10.10;84.30
52787;DHT22;38661;53.152;5.846;2022-09-21T00:28:38;10.00;84.30
52787;DHT22;38661;53.152;5.846;2022-09-21T00:31:10;10.00;84.40
52787;DHT22;38661;53.152;5.846;2022-09-21T00:33:37;10.00;84.50
52787;DHT22;38661;53.152;5.846;2022-09-21T00:36:05;10.00;84.30
52787;DHT22;38661;53.152;5.846;2022-09-21T00:38:32;10.00;84.40
52787;DHT22;38661;53.152;5.846;2022-09-21T00:40:58;10.00;84.50
52787;DHT22;38661;53.152;5.846;2022-09-21T00:43:25;9.90;84.70
52787;DHT22;38661;53.152;5.846;2022-09-21T00:45:59;9.90;85.20
52787;DHT22;38661;53.152;5.846;2022-09-21T00:48:25;9.90;85.40
52787;DHT22;38661;53.152;5.846;2022-09-21T00:50:53;9.90;85.70
52787;DHT22;38661;53.152;5.846;2022-09-21T00:53:21;9.90;86.00
52787;DHT22;38661;53.152;5.846;2022-09-21T00:55:51;9.90;85.50
52787;DHT22;38661;53.152;5.846;2022-09-21T00:58:24;9.80;85.50
52787;DHT22;38661;53.152;5.846;2022-09-21T01:00:52;9.80;85.60
52787;DHT22;38661;53.152;5.846;2022-09-21T01:03:18;9.80;85.50
52787;DHT22;38661;53.152;5.846;2022-09-21T01:05:44;9.80;85.40
52787;DHT22;38661;53.152;5.846;2022-09-21T01:08:11;9.80;85.20
52787;DHT22;38661;53.152;5.846;2022-09-21T01:14:07;9.70;85.50
52787;DHT22;38661;53.152;5.846;2022-09-21T01:28:08;9.50;85.70
52787;DHT22;38661;53.152;5.846;2022-09-21T01:30:39;9.40;86.00
52787;DHT22;38661;53.152;5.846;2022-09-21T01:33:14;9.30;86.20
52787;DHT22;38661;53.152;5.846;2022-09-21T01:35:46;9.30;86.40
52787;DHT22;38661;53.152;5.846;2022-09-21T01:38:22;9.30;86.30
52787;DHT22;38661;53.152;5.846;2022-09-21T01:40:57;9.30;86.20
52787;DHT22;38661;53.152;5.846;2022-09-21T01:43:33;9.30;86.40
52787;DHT22;38661;53.152;5.846;2022-09-21T01:46:01;9.30;87.90
52787;DHT22;38661;53.152;5.846;2022-09-21T01:48:33;9.40;86.90
52787;DHT22;38661;53.152;5.846;2022-09-21T01:51:03;9.40;86.70
52787;DHT22;38661;53.152;5.846;2022-09-21T01:53:37;9.40;86.50
52787;DHT22;38661;53.152;5.846;2022-09-21T01:56:09;9.40;86.80
52787;DHT22;38661;53.152;5.846;2022-09-21T01:58:44;9.40;86.60
52787;DHT22;38661;53.152;5.846;2022-09-21T02:01:14;9.40;86.90
52787;DHT22;38661;53.152;5.846;2022-09-21T02:03:58;9.40;86.80
52787;DHT22;38661;53.152;5.846;2022-09-21T02:06:27;9.50;86.90
52787;DHT22;38661;53.152;5.846;2022-09-21T02:08:54;9.40;87.00
52787;DHT22;38661;53.152;5.846;2022-09-21T02:11:20;9.40;87.00
52787;DHT22;38661;53.152;5.846;2022-09-21T02:13:48;9.40;86.90
52787;DHT22;38661;53.152;5.846;2022-09-21T02:16:36;9.40;86.70
52787;DHT22;38661;53.152;5.846;2022-09-21T02:25:37;9.20;86.40
52787;DHT22;38661;53.152;5.846;2022-09-21T02:28:10;9.10;86.50
52787;DHT22;38661;53.152;5.846;2022-09-21T02:30:40;9.20;86.50
52787;DHT22;38661;53.152;5.846;2022-09-21T02:33:13;9.20;86.40
52787;DHT22;38661;53.152;5.846;2022-09-21T02:35:58;9.20;86.30
52787;DHT22;38661;53.152;5.846;2022-09-21T02:38:32;9.20;86.20
52787;DHT22;38661;53.152;5.846;2022-09-21T02:44:08;9.20;86.20
52787;DHT22;38661;53.152;5.846;2022-09-21T02:49:09;9.30;86.40
52787;DHT22;38661;53.152;5.846;2022-09-21T02:51:44;9.30;86.60
52787;DHT22;38661;53.152;5.846;2022-09-21T02:54:13;9.40;86.70
52787;DHT22;38661;53.152;5.846;2022-09-21T02:56:41;9.30;86.60
52787;DHT22;38661;53.152;5.846;2022-09-21T02:59:08;9.40;86.70
52787;DHT22;38661;53.152;5.846;2022-09-21T03:01:35;9.40;86.60
52787;DHT22;38661;53.152;5.846;2022-09-21T03:04:01;9.40;86.50
52787;DHT22;38661;53.152;5.846;2022-09-21T03:06:26;9.30;86.50
52787;DHT22;38661;53.152;5.846;2022-09-21T03:08:52;9.30;86.40
52787;DHT22;38661;53.152;5.846;2022-09-21T03:11:19;9.30;86.30
52787;DHT22;38661;53.152;5.846;2022-09-21T03:13:45;9.30;86.40
52787;DHT22;38661;53.152;5.846;2022-09-21T03:16:11;9.30;86.50
52787;DHT22;38661;53.152;5.846;2022-09-21T03:18:37;9.30;86.30
52787;DHT22;38661;53.152;5.846;2022-09-21T03:21:04;9.20;86.30
52787;DHT22;38661;53.152;5.846;2022-09-21T03:23:30;9.20;86.20
52787;DHT22;38661;53.152;5.846;2022-09-21T03:25:56;9.30;86.30
52787;DHT22;38661;53.152;5.846;2022-09-21T03:28:22;9.30;86.30
52787;DHT22;38661;53.152;5.846;2022-09-21T03:30:48;9.30;86.50
52787;DHT22;38661;53.152;5.846;2022-09-21T03:33:16;9.20;86.40
52787;DHT22;38661;53.152;5.846;2022-09-21T03:35:42;9.20;86.40
52787;DHT22;38661;53.152;5.846;2022-09-21T03:38:08;9.20;86.60
52787;DHT22;38661;53.152;5.846;2022-09-21T03:40:34;9.10;87.10
52787;DHT22;38661;53.152;5.846;2022-09-21T03:42:59;9.10;87.10
52787;DHT22;38661;53.152;5.846;2022-09-21T03:45:25;9.00;87.30
52787;DHT22;38661;53.152;5.846;2022-09-21T03:47:54;9.00;87.50
52787;DHT22;38661;53.152;5.846;2022-09-21T03:50:22;9.00;87.40
52787;DHT22;38661;53.152;5.846;2022-09-21T03:52:48;9.00;87.60
52787;DHT22;38661;53.152;5.846;2022-09-21T03:55:14;9.00;87.60
52787;DHT22;38661;53.152;5.846;2022-09-21T03:57:40;9.00;87.60
52787;DHT22;38661;53.152;5.846;2022-09-21T04:00:08;9.00;87.80
52787;DHT22;38661;53.152;5.846;2022-09-21T04:02:35;9.00;87.70
52787;DHT22;38661;53.152;5.846;2022-09-21T04:05:02;9.00;87.80
52787;DHT22;38661;53.152;5.846;2022-09-21T04:07:32;9.00;87.50
52787;DHT22;38661;53.152;5.846;2022-09-21T04:10:02;9.00;87.50
52787;DHT22;38661;53.152;5.846;2022-09-21T04:12:29;9.00;87.60
52787;DHT22;38661;53.152;5.846;2022-09-21T04:14:55;9.10;87.80
52787;DHT22;38661;53.152;5.846;2022-09-21T04:17:21;9.10;88.00
52787;DHT22;38661;53.152;5.846;2022-09-21T04:19:47;9.00;88.00
52787;DHT22;38661;53.152;5.846;2022-09-21T04:22:13;9.00;88.00
52787;DHT22;38661;53.152;5.846;2022-09-21T04:24:39;9.10;88.10
52787;DHT22;38661;53.152;5.846;2022-09-21T04:27:08;9.10;88.10
52787;DHT22;38661;53.152;5.846;2022-09-21T04:29:34;9.00;88.10
52787;DHT22;38661;53.152;5.846;2022-09-21T04:32:00;9.00;88.20
52787;DHT22;38661;53.152;5.846;2022-09-21T04:34:26;9.00;88.20
52787;DHT22;38661;53.152;5.846;2022-09-21T04:36:52;9.10;88.20
52787;DHT22;38661;53.152;5.846;2022-09-21T04:39:19;9.00;88.00
52787;DHT22;38661;53.152;5.846;2022-09-21T04:41:44;9.00;87.90
52787;DHT22;38661;53.152;5.846;2022-09-21T04:44:10;9.00;87.80
52787;DHT22;38661;53.152;5.846;2022-09-21T04:46:36;9.00;87.70
52787;DHT22;38661;53.152;5.846;2022-09-21T04:49:02;9.00;87.80
52787;DHT22;38661;53.152;5.846;2022-09-21T04:51:28;9.00;87.70
52787;DHT22;38661;53.152;5.846;2022-09-21T04:53:54;9.00;87.40
52787;DHT22;38661;53.152;5.846;2022-09-21T04:56:20;9.00;87.40
52787;DHT22;38661;53.152;5.846;2022-09-21T04:58:45;9.00;87.30
52787;DHT22;38661;53.152;5.846;2022-09-21T05:01:11;8.90;87.10
52787;DHT22;38661;53.152;5.846;2022-09-21T05:03:37;8.80;87.00
52787;DHT22;38661;53.152;5.846;2022-09-21T05:06:03;8.90;87.10
52787;DHT22;38661;53.152;5.846;2022-09-21T05:08:28;8.80;87.00
52787;DHT22;38661;53.152;5.846;2022-09-21T05:11:15;8.80;87.10
52787;DHT22;38661;53.152;5.846;2022-09-21T05:13:43;8.80;87.00
52787;DHT22;38661;53.152;5.846;2022-09-21T05:16:09;8.70;87.10
52787;DHT22;38661;53.152;5.846;2022-09-21T05:18:35;8.80;87.20
52787;DHT22;38661;53.152;5.846;2022-09-21T05:21:02;8.80;87.20
52787;DHT22;38661;53.152;5.846;2022-09-21T05:23:29;8.80;87.10
52787;DHT22;38661;53.152;5.846;2022-09-21T05:25:56;8.80;87.40
52787;DHT22;38661;53.152;5.846;2022-09-21T05:28:23;8.80;87.50
52787;DHT22;38661;53.152;5.846;2022-09-21T05:39:00;8.80;87.70
52787;DHT22;38661;53.152;5.846;2022-09-21T05:41:26;8.70;87.50
52787;DHT22;38661;53.152;5.846;2022-09-21T05:43:52;8.70;87.20
52787;DHT22;38661;53.152;5.846;2022-09-21T05:49:18;8.60;87.00
52787;DHT22;38661;53.152;5.846;2022-09-21T05:56:57;8.50;87.30
52787;DHT22;38661;53.152;5.846;2022-09-21T06:05:08;8.60;87.50
52787;DHT22;38661;53.152;5.846;2022-09-21T06:07:34;8.60;87.50
52787;DHT22;38661;53.152;5.846;2022-09-21T06:10:00;8.60;87.70
52787;DHT22;38661;53.152;5.846;2022-09-21T06:12:26;8.70;87.70
52787;DHT22;38661;53.152;5.846;2022-09-21T06:14:51;8.70;87.60
52787;DHT22;38661;53.152;5.846;2022-09-21T06:17:17;8.70;87.60
52787;DHT22;38661;53.152;5.846;2022-09-21T06:19:42;8.70;87.70
52787;DHT22;38661;53.152;5.846;2022-09-21T06:22:08;8.70;87.70
52787;DHT22;38661;53.152;5.846;2022-09-21T06:24:34;8.80;87.80
52787;DHT22;38661;53.152;5.846;2022-09-21T06:26:59;8.80;88.30
52787;DHT22;38661;53.152;5.846;2022-09-21T06:29:25;8.80;88.40
52787;DHT22;38661;53.152;5.846;2022-09-21T06:31:51;8.90;88.80
52787;DHT22;38661;53.152;5.846;2022-09-21T06:34:17;9.00;88.90
52787;DHT22;38661;53.152;5.846;2022-09-21T06:36:42;9.10;89.00
52787;DHT22;38661;53.152;5.846;2022-09-21T06:39:10;9.20;88.90
52787;DHT22;38661;53.152;5.846;2022-09-21T06:41:36;9.30;88.80
52787;DHT22;38661;53.152;5.846;2022-09-21T06:44:01;9.30;88.80
52787;DHT22;38661;53.152;5.846;2022-09-21T06:46:27;9.40;88.80
52787;DHT22;38661;53.152;5.846;2022-09-21T06:48:53;9.40;88.80
52787;DHT22;38661;53.152;5.846;2022-09-21T06:51:19;9.50;88.70
52787;DHT22;38661;53.152;5.846;2022-09-21T06:53:46;9.60;88.70
52787;DHT22;38661;53.152;5.846;2022-09-21T06:56:12;9.60;88.80
52787;DHT22;38661;53.152;5.846;2022-09-21T06:58:38;9.70;88.80
52787;DHT22;38661;53.152;5.846;2022-09-21T07:01:08;9.80;88.80
52787;DHT22;38661;53.152;5.846;2022-09-21T07:03:34;9.90;88.90
52787;DHT22;38661;53.152;5.846;2022-09-21T07:06:00;10.00;88.90
52787;DHT22;38661;53.152;5.846;2022-09-21T07:08:26;10.10;88.80
52787;DHT22;38661;53.152;5.846;2022-09-21T07:10:52;10.30;88.80
52787;DHT22;38661;53.152;5.846;2022-09-21T07:13:17;10.40;88.70
52787;DHT22;38661;53.152;5.846;2022-09-21T07:15:43;10.40;88.70
52787;DHT22;38661;53.152;5.846;2022-09-21T07:18:12;10.60;88.40
52787;DHT22;38661;53.152;5.846;2022-09-21T07:20:39;10.70;88.40
52787;DHT22;38661;53.152;5.846;2022-09-21T07:23:13;10.80;88.30
52787;DHT22;38661;53.152;5.846;2022-09-21T07:25:43;10.90;88.20
52787;DHT22;38661;53.152;5.846;2022-09-21T07:28:09;11.00;88.50
52787;DHT22;38661;53.152;5.846;2022-09-21T07:30:36;11.10;88.00
52787;DHT22;38661;53.152;5.846;2022-09-21T07:33:03;11.30;87.80
52787;DHT22;38661;53.152;5.846;2022-09-21T07:35:29;11.40;87.70
52787;DHT22;38661;53.152;5.846;2022-09-21T07:37:57;11.50;87.50
52787;DHT22;38661;53.152;5.846;2022-09-21T07:40:23;11.60;87.40
52787;DHT22;38661;53.152;5.846;2022-09-21T07:42:49;11.80;88.60
52787;DHT22;38661;53.152;5.846;2022-09-21T07:45:15;12.00;89.10
52787;DHT22;38661;53.152;5.846;2022-09-21T07:47:40;12.10;87.80
52787;DHT22;38661;53.152;5.846;2022-09-21T07:50:06;12.30;87.90
52787;DHT22;38661;53.152;5.846;2022-09-21T07:52:32;12.40;88.60
52787;DHT22;38661;53.152;5.846;2022-09-21T07:54:58;12.50;87.70
52787;DHT22;38661;53.152;5.846;2022-09-21T07:57:24;12.70;87.80
52787;DHT22;38661;53.152;5.846;2022-09-21T08:00:08;12.80;87.80
52787;DHT22;38661;53.152;5.846;2022-09-21T08:02:34;13.00;87.80
52787;DHT22;38661;53.152;5.846;2022-09-21T08:05:00;13.10;87.80
52787;DHT22;38661;53.152;5.846;2022-09-21T08:07:26;13.30;87.70
52787;DHT22;38661;53.152;5.846;2022-09-21T08:09:52;13.40;87.50
52787;DHT22;38661;53.152;5.846;2022-09-21T08:12:18;13.50;87.30
52787;DHT22;38661;53.152;5.846;2022-09-21T08:14:46;13.60;86.90
52787;DHT22;38661;53.152;5.846;2022-09-21T08:17:12;13.80;86.50
52787;DHT22;38661;53.152;5.846;2022-09-21T08:19:38;13.90;86.30
52787;DHT22;38661;53.152;5.846;2022-09-21T08:22:04;14.00;86.10
52787;DHT22;38661;53.152;5.846;2022-09-21T08:24:30;14.00;85.10
52787;DHT22;38661;53.152;5.846;2022-09-21T08:27:00;14.20;84.20
52787;DHT22;38661;53.152;5.846;2022-09-21T08:29:26;14.20;83.50
52787;DHT22;38661;53.152;5.846;2022-09-21T08:31:52;14.40;81.80
52787;DHT22;38661;53.152;5.846;2022-09-21T08:34:18;14.40;81.70
52787;DHT22;38661;53.152;5.846;2022-09-21T08:36:44;14.50;81.40
52787;DHT22;38661;53.152;5.846;2022-09-21T08:39:11;14.60;81.20
52787;DHT22;38661;53.152;5.846;2022-09-21T08:44:47;14.80;80.50
52787;DHT22;38661;53.152;5.846;2022-09-21T08:47:34;14.90;79.50
52787;DHT22;38661;53.152;5.846;2022-09-21T08:50:03;15.00;77.00
52787;DHT22;38661;53.152;5.846;2022-09-21T08:52:30;15.00;75.00
52787;DHT22;38661;53.152;5.846;2022-09-21T08:55:00;15.00;73.70
52787;DHT22;38661;53.152;5.846;2022-09-21T08:57:32;15.10;73.80
52787;DHT22;38661;53.152;5.846;2022-09-21T08:59:59;15.20;73.40
52787;DHT22;38661;53.152;5.846;2022-09-21T09:08:16;15.50;70.00
52787;DHT22;38661;53.152;5.846;2022-09-21T09:19:19;15.80;68.00
52787;DHT22;38661;53.152;5.846;2022-09-21T09:21:47;15.70;67.40
52787;DHT22;38661;53.152;5.846;2022-09-21T09:24:36;15.80;67.30
52787;DHT22;38661;53.152;5.846;2022-09-21T09:27:08;15.90;67.00
52787;DHT22;38661;53.152;5.846;2022-09-21T09:30:03;15.90;67.00
52787;DHT22;38661;53.152;5.846;2022-09-21T09:32:57;16.20;67.70
52787;DHT22;38661;53.152;5.846;2022-09-21T09:35:26;16.40;67.90
52787;DHT22;38661;53.152;5.846;2022-09-21T09:38:09;16.60;67.70
52787;DHT22;38661;53.152;5.846;2022-09-21T09:43:47;17.10;67.60
52787;DHT22;38661;53.152;5.846;2022-09-21T09:46:20;17.20;66.60
52787;DHT22;38661;53.152;5.846;2022-09-21T09:51:32;17.50;65.00
52787;DHT22;38661;53.152;5.846;2022-09-21T09:54:01;17.50;63.30
52787;DHT22;38661;53.152;5.846;2022-09-21T09:56:30;17.60;64.20
52787;DHT22;38661;53.152;5.846;2022-09-21T09:58:59;17.60;62.40
52787;DHT22;38661;53.152;5.846;2022-09-21T10:01:44;17.60;61.20
52787;DHT22;38661;53.152;5.846;2022-09-21T10:04:13;17.70;59.90
52787;DHT22;38661;53.152;5.846;2022-09-21T10:06:40;17.60;60.90
52787;DHT22;38661;53.152;5.846;2022-09-21T10:11:44;17.70;60.70
52787;DHT22;38661;53.152;5.846;2022-09-21T10:14:17;17.90;60.30
52787;DHT22;38661;53.152;5.846;2022-09-21T10:16:43;17.90;59.50
52787;DHT22;38661;53.152;5.846;2022-09-21T10:19:36;17.90;58.60
52787;DHT22;38661;53.152;5.846;2022-09-21T10:22:04;17.90;57.30
52787;DHT22;38661;53.152;5.846;2022-09-21T10:24:37;17.90;58.10
52787;DHT22;38661;53.152;5.846;2022-09-21T10:27:13;18.00;57.30
52787;DHT22;38661;53.152;5.846;2022-09-21T10:29:40;18.00;57.50
52787;DHT22;38661;53.152;5.846;2022-09-21T10:34:39;18.30;57.20
52787;DHT22;38661;53.152;5.846;2022-09-21T10:37:30;18.50;57.00
52787;DHT22;38661;53.152;5.846;2022-09-21T10:39:59;18.70;56.50
52787;DHT22;38661;53.152;5.846;2022-09-21T10:42:30;18.90;57.60
52787;DHT22;38661;53.152;5.846;2022-09-21T10:45:21;19.20;56.70
52787;DHT22;38661;53.152;5.846;2022-09-21T10:50:44;19.40;55.90
52787;DHT22;38661;53.152;5.846;2022-09-21T10:55:42;19.60;54.10
52787;DHT22;38661;53.152;5.846;2022-09-21T10:58:10;19.60;53.70
52787;DHT22;38661;53.152;5.846;2022-09-21T11:00:44;19.40;51.90
52787;DHT22;38661;53.152;5.846;2022-09-21T11:05:59;19.60;50.30
52787;DHT22;38661;53.152;5.846;2022-09-21T11:08:37;19.50;51.30
52787;DHT22;38661;53.152;5.846;2022-09-21T11:17:03;19.80;50.20
52787;DHT22;38661;53.152;5.846;2022-09-21T11:19:56;19.90;48.70
52787;DHT22;38661;53.152;5.846;2022-09-21T11:28:03;20.30;51.00
52787;DHT22;38661;53.152;5.846;2022-09-21T11:33:33;20.60;49.90
52787;DHT22;38661;53.152;5.846;2022-09-21T11:36:10;20.70;48.90
52787;DHT22;38661;53.152;5.846;2022-09-21T11:39:01;20.60;47.40
52787;DHT22;38661;53.152;5.846;2022-09-21T12:01:18;21.20;45.60
52787;DHT22;38661;53.152;5.846;2022-09-21T12:09:05;20.50;48.20
52787;DHT22;38661;53.152;5.846;2022-09-21T12:11:47;20.80;48.30
52787;DHT22;38661;53.152;5.846;2022-09-21T12:22:12;21.50;43.90
52787;DHT22;38661;53.152;5.846;2022-09-21T12:24:43;20.90;45.80
52787;DHT22;38661;53.152;5.846;2022-09-21T12:27:36;20.60;47.00
52787;DHT22;38661;53.152;5.846;2022-09-21T12:30:12;20.70;45.00
52787;DHT22;38661;53.152;5.846;2022-09-21T12:32:55;20.80;44.90
52787;DHT22;38661;53.152;5.846;2022-09-21T12:35:44;21.00;47.20
52787;DHT22;38661;53.152;5.846;2022-09-21T12:38:20;21.40;46.60
52787;DHT22;38661;53.152;5.846;2022-09-21T12:40:57;21.50;46.70
52787;DHT22;38661;53.152;5.846;2022-09-21T12:43:47;21.50;43.80
52787;DHT22;38661;53.152;5.846;2022-09-21T12:46:24;21.60;44.80
52787;DHT22;38661;53.152;5.846;2022-09-21T12:48:52;21.90;45.30
52787;DHT22;38661;53.152;5.846;2022-09-21T12:53:57;22.30;44.10
52787;DHT22;38661;53.152;5.846;2022-09-21T12:59:34;22.80;45.40
52787;DHT22;38661;53.152;5.846;2022-09-21T13:02:20;23.00;40.60
52787;DHT22;38661;53.152;5.846;2022-09-21T13:12:55;23.30;41.30
52787;DHT22;38661;53.152;5.846;2022-09-21T13:15:31;23.30;40.70
52787;DHT22;38661;53.152;5.846;2022-09-21T13:17:59;23.20;39.40
52787;DHT22;38661;53.152;5.846;2022-09-21T13:20:25;22.40;40.10
52787;DHT22;38661;53.152;5.846;2022-09-21T13:22:58;22.60;40.50
52787;DHT22;38661;53.152;5.846;2022-09-21T13:25:25;22.40;39.70
52787;DHT22;38661;53.152;5.846;2022-09-21T13:33:27;22.90;41.00
52787;DHT22;38661;53.152;5.846;2022-09-21T13:36:03;23.10;38.80
52787;DHT22;38661;53.152;5.846;2022-09-21T13:43:46;22.80;40.40
52787;DHT22;38661;53.152;5.846;2022-09-21T13:46:51;22.90;40.40
52787;DHT22;38661;53.152;5.846;2022-09-21T13:49:25;23.30;40.80
52787;DHT22;38661;53.152;5.846;2022-09-21T13:51:58;23.40;39.60
52787;DHT22;38661;53.152;5.846;2022-09-21T13:54:48;23.20;40.20
52787;DHT22;38661;53.152;5.846;2022-09-21T13:57:38;23.30;40.70
52787;DHT22;38661;53.152;5.846;2022-09-21T14:00:29;23.40;38.30
52787;DHT22;38661;53.152;5.846;2022-09-21T14:03:00;23.40;38.50
52787;DHT22;38661;53.152;5.846;2022-09-21T14:05:40;23.50;38.70
52787;DHT22;38661;53.152;5.846;2022-09-21T14:13:39;23.80;37.80
52787;DHT22;38661;53.152;5.846;2022-09-21T14:24:37;21.60;42.40
52787;DHT22;38661;53.152;5.846;2022-09-21T14:27:17;21.20;43.70
52787;DHT22;38661;53.152;5.846;2022-09-21T14:29:51;20.80;44.30
52787;DHT22;38661;53.152;5.846;2022-09-21T14:32:21;20.50;45.50
52787;DHT22;38661;53.152;5.846;2022-09-21T14:34:50;20.20;46.40
52787;DHT22;38661;53.152;5.846;2022-09-21T14:37:31;19.90;47.80
52787;DHT22;38661;53.152;5.846;2022-09-21T14:40:02;19.70;47.70
52787;DHT22;38661;53.152;5.846;2022-09-21T14:42:29;19.50;47.80
52787;DHT22;38661;53.152;5.846;2022-09-21T14:44:58;19.40;48.20
52787;DHT22;38661;53.152;5.846;2022-09-21T14:48:45;19.30;48.40
52787;DHT22;38661;53.152;5.846;2022-09-21T14:50:58;19.00;49.10
52787;DHT22;38661;53.152;5.846;2022-09-21T14:53:36;18.90;49.90
52787;DHT22;38661;53.152;5.846;2022-09-21T15:01:34;18.50;53.00
52787;DHT22;38661;53.152;5.846;2022-09-21T15:07:11;18.40;54.80
52787;DHT22;38661;53.152;5.846;2022-09-21T15:10:17;18.40;55.10
52787;DHT22;38661;53.152;5.846;2022-09-21T15:18:39;18.00;58.40
52787;DHT22;38661;53.152;5.846;2022-09-21T15:21:25;17.90;58.60
52787;DHT22;38661;53.152;5.846;2022-09-21T15:23:52;17.90;59.90
52787;DHT22;38661;53.152;5.846;2022-09-21T15:26:29;17.90;60.60
52787;DHT22;38661;53.152;5.846;2022-09-21T15:29:02;17.80;61.30
52787;DHT22;38661;53.152;5.846;2022-09-21T15:31:38;17.70;61.50
52787;DHT22;38661;53.152;5.846;2022-09-21T15:34:05;17.60;61.70
52787;DHT22;38661;53.152;5.846;2022-09-21T15:36:35;17.60;62.00
52787;DHT22;38661;53.152;5.846;2022-09-21T15:39:02;17.50;62.10
52787;DHT22;38661;53.152;5.846;2022-09-21T15:41:45;17.50;62.20
52787;DHT22;38661;53.152;5.846;2022-09-21T15:44:16;17.50;62.20
52787;DHT22;38661;53.152;5.846;2022-09-21T15:46:47;17.50;62.00
52787;DHT22;38661;53.152;5.846;2022-09-21T15:49:15;17.40;62.00
52787;DHT22;38661;53.152;5.846;2022-09-21T15:52:02;17.40;62.00
52787;DHT22;38661;53.152;5.846;2022-09-21T15:54:34;17.40;61.90
52787;DHT22;38661;53.152;5.846;2022-09-21T15:57:05;17.40;61.90
52787;DHT22;38661;53.152;5.846;2022-09-21T15:59:46;17.30;62.00
52787;DHT22;38661;53.152;5.846;2022-09-21T16:02:18;17.30;61.80
52787;DHT22;38661;53.152;5.846;2022-09-21T16:04:45;17.50;61.40
52787;DHT22;38661;53.152;5.846;2022-09-21T16:07:34;18.00;60.60
52787;DHT22;38661;53.152;5.846;2022-09-21T16:10:01;18.50;59.30
52787;DHT22;38661;53.152;5.846;2022-09-21T16:12:40;19.00;58.00
52787;DHT22;38661;53.152;5.846;2022-09-21T16:17:37;19.70;56.20
52787;DHT22;38661;53.152;5.846;2022-09-21T16:20:13;20.00;54.60
52787;DHT22;38661;53.152;5.846;2022-09-21T16:22:40;20.20;53.40
52787;DHT22;38661;53.152;5.846;2022-09-21T16:25:27;20.50;52.50
52787;DHT22;38661;53.152;5.846;2022-09-21T16:28:00;20.90;52.10
52787;DHT22;38661;53.152;5.846;2022-09-21T16:30:50;21.10;51.20
52787;DHT22;38661;53.152;5.846;2022-09-21T16:33:33;21.40;50.30
52787;DHT22;38661;53.152;5.846;2022-09-21T16:35:59;21.60;49.40
52787;DHT22;38661;53.152;5.846;2022-09-21T16:38:29;21.70;49.00
52787;DHT22;38661;53.152;5.846;2022-09-21T16:40:55;21.70;49.00
52787;DHT22;38661;53.152;5.846;2022-09-21T16:43:22;21.80;48.40
52787;DHT22;38661;53.152;5.846;2022-09-21T16:45:48;21.80;48.50
52787;DHT22;38661;53.152;5.846;2022-09-21T16:48:14;21.40;49.30
52787;DHT22;38661;53.152;5.846;2022-09-21T16:50:40;20.80;50.90
52787;DHT22;38661;53.152;5.846;2022-09-21T16:53:08;20.20;52.10
52787;DHT22;38661;53.152;5.846;2022-09-21T16:55:33;19.80;53.30
52787;DHT22;38661;53.152;5.846;2022-09-21T16:57:59;19.40;54.50
52787;DHT22;38661;53.152;5.846;2022-09-21T17:00:27;19.00;55.10
52787;DHT22;38661;53.152;5.846;2022-09-21T17:02:54;18.70;55.60
52787;DHT22;38661;53.152;5.846;2022-09-21T17:05:20;18.50;56.30
52787;DHT22;38661;53.152;5.846;2022-09-21T17:07:54;18.30;57.50
52787;DHT22;38661;53.152;5.846;2022-09-21T17:10:22;18.00;59.40
52787;DHT22;38661;53.152;5.846;2022-09-21T17:12:56;17.80;60.20
52787;DHT22;38661;53.152;5.846;2022-09-21T17:15:23;17.60;60.80
52787;DHT22;38661;53.152;5.846;2022-09-21T17:17:49;17.50;61.60
52787;DHT22;38661;53.152;5.846;2022-09-21T17:22:49;17.10;63.60
52787;DHT22;38661;53.152;5.846;2022-09-21T17:25:15;17.00;63.90
52787;DHT22;38661;53.152;5.846;2022-09-21T17:27:41;16.70;64.60
52787;DHT22;38661;53.152;5.846;2022-09-21T17:30:13;16.60;65.40
52787;DHT22;38661;53.152;5.846;2022-09-21T17:32:40;16.50;65.90
52787;DHT22;38661;53.152;5.846;2022-09-21T17:37:53;16.20;66.90
52787;DHT22;38661;53.152;5.846;2022-09-21T17:40:19;16.10;67.10
52787;DHT22;38661;53.152;5.846;2022-09-21T17:42:49;16.00;67.40
52787;DHT22;38661;53.152;5.846;2022-09-21T17:47:46;15.80;68.20
52787;DHT22;38661;53.152;5.846;2022-09-21T17:50:23;15.80;68.20
52787;DHT22;38661;53.152;5.846;2022-09-21T17:52:51;15.70;69.10
52787;DHT22;38661;53.152;5.846;2022-09-21T17:55:37;15.50;69.40
52787;DHT22;38661;53.152;5.846;2022-09-21T17:58:38;15.40;69.40
52787;DHT22;38661;53.152;5.846;2022-09-21T18:01:14;15.30;69.80
52787;DHT22;38661;53.152;5.846;2022-09-21T18:03:43;15.30;69.90
52787;DHT22;38661;53.152;5.846;2022-09-21T18:06:10;15.20;70.10
52787;DHT22;38661;53.152;5.846;2022-09-21T18:08:37;15.10;70.30
52787;DHT22;38661;53.152;5.846;2022-09-21T18:11:12;15.00;70.70
52787;DHT22;38661;53.152;5.846;2022-09-21T18:21:21;14.80;71.60
52787;DHT22;38661;53.152;5.846;2022-09-21T18:24:18;14.80;71.40
52787;DHT22;38661;53.152;5.846;2022-09-21T18:26:45;14.70;71.90
52787;DHT22;38661;53.152;5.846;2022-09-21T18:29:25;14.60;71.70
52787;DHT22;38661;53.152;5.846;2022-09-21T18:40:41;14.30;73.00
52787;DHT22;38661;53.152;5.846;2022-09-21T18:46:10;14.20;73.30
52787;DHT22;38661;53.152;5.846;2022-09-21T18:49:02;14.10;73.40
52787;DHT22;38661;53.152;5.846;2022-09-21T18:51:40;14.10;73.70
52787;DHT22;38661;53.152;5.846;2022-09-21T18:54:17;14.00;73.60
52787;DHT22;38661;53.152;5.846;2022-09-21T18:56:43;14.00;73.80
52787;DHT22;38661;53.152;5.846;2022-09-21T18:59:10;14.00;74.00
52787;DHT22;38661;53.152;5.846;2022-09-21T19:01:36;14.00;74.20
52787;DHT22;38661;53.152;5.846;2022-09-21T19:04:02;14.00;74.30
52787;DHT22;38661;53.152;5.846;2022-09-21T19:06:39;13.90;74.50
52787;DHT22;38661;53.152;5.846;2022-09-21T19:15:38;13.80;74.90
52787;DHT22;38661;53.152;5.846;2022-09-21T19:20:56;13.70;75.10
52787;DHT22;38661;53.152;5.846;2022-09-21T19:23:43;13.60;75.20
52787;DHT22;38661;53.152;5.846;2022-09-21T19:26:16;13.60;75.30
52787;DHT22;38661;53.152;5.846;2022-09-21T19:29:16;13.50;75.20
52787;DHT22;38661;53.152;5.846;2022-09-21T19:31:46;13.50;75.60
52787;DHT22;38661;53.152;5.846;2022-09-21T19:34:16;13.50;75.30
52787;DHT22;38661;53.152;5.846;2022-09-21T19:36:43;13.50;75.40
52787;DHT22;38661;53.152;5.846;2022-09-21T19:39:10;13.40;75.60
52787;DHT22;38661;53.152;5.846;2022-09-21T19:42:02;13.40;75.60
52787;DHT22;38661;53.152;5.846;2022-09-21T19:44:52;13.40;75.60